Time;durP1;ratioP1;P1;durP2;ratioP2;P2;SDS_P1;SDS_P2;PMS_P1;PMS_P2;Temp;Humidity;BMP_temperature;BMP_pressure;BME280_temperature;BME280_humidity;BME280_pressure;Samples;Min_cycle;Max_cycle;Signal;HPM_P1;HPM_P2
2023/11/28 00:00:40;;;;;;;8.30;5.60;;;;;;;-3.17;100.00;100033.25;106049;1257;60175;-78
2023/11/28 00:03:07;;;;;;;9.50;4.50;;;;;;;-3.18;100.00;100028.83;106321;1256;73010;-79
2023/11/28 00:05:35;;;;;;;9.90;5.40;;;;;;;-3.20;100.00;100036.52;106101;1253;62523;-78
2023/11/28 00:08:02;;;;;;;7.00;5.10;;;;;;;-3.22;100.00;100041.86;105960;1256;72451;-82
2023/11/28 00:10:30;;;;;;;8.10;4.80;;;;;;;-3.25;100.00;100044.99;105919;1252;61846;-80
2023/11/28 00:12:58;;;;;;;8.10;5.10;;;;;;;-3.28;100.00;100045.87;106538;1254;60170;-79
2023/11/28 00:15:26;;;;;;;7.30;5.30;;;;;;;-3.29;100.00;100045.73;106206;1254;71557;-79
2023/11/28 00:17:54;;;;;;;7.20;4.60;;;;;;;-3.32;100.00;100046.61;106019;1255;63909;-79
2023/11/28 00:20:21;;;;;;;11.50;5.60;;;;;;;-3.36;100.00;100048.88;107851;1253;72440;-78
2023/11/28 00:22:47;;;;;;;9.50;4.60;;;;;;;-3.37;100.00;100049.07;106200;1254;61824;-79
2023/11/28 00:25:18;;;;;;;9.20;5.50;;;;;;;-3.39;100.00;100050.79;106043;1256;60328;-80
2023/11/28 00:27:45;;;;;;;11.00;4.80;;;;;;;-3.40;100.00;100050.80;105802;1253;72995;-80
2023/11/28 00:30:16;;;;;;;7.10;5.30;;;;;;;-3.41;100.00;100045.36;105828;1256;63953;-79
2023/11/28 00:32:44;;;;;;;9.70;5.30;;;;;;;-3.44;100.00;100043.67;105906;1254;72718;-79
2023/11/28 00:35:11;;;;;;;9.70;5.00;;;;;;;-3.45;100.00;100042.67;105754;1257;61727;-80
2023/11/28 00:37:38;;;;;;;7.80;4.90;;;;;;;-3.48;100.00;100041.85;105823;1255;60446;-79
2023/11/28 00:40:10;;;;;;;9.10;5.00;;;;;;;-3.49;100.00;100045.96;105794;1256;72901;-78
2023/11/28 00:42:38;;;;;;;7.70;4.90;;;;;;;-3.50;100.00;100046.50;105655;1257;64283;-77
2023/11/28 00:45:08;;;;;;;7.20;4.90;;;;;;;-3.52;100.00;100047.88;105692;1255;71404;-80
2023/11/28 00:47:38;;;;;;;8.20;4.50;;;;;;;-3.53;100.00;100049.09;105606;1260;62103;-80
2023/11/28 00:50:06;;;;;;;8.80;5.90;;;;;;;-3.54;100.00;100055.08;105758;1255;60415;-80
2023/11/28 00:52:33;;;;;;;5.50;5.00;;;;;;;-3.56;100.00;100055.95;105742;1257;73044;-80
2023/11/28 00:55:00;;;;;;;6.00;5.20;;;;;;;-3.57;100.00;100056.30;105714;1256;63877;-81
2023/11/28 00:57:27;;;;;;;9.90;5.80;;;;;;;-3.58;100.00;100058.37;105683;1254;72577;-80
2023/11/28 00:59:54;;;;;;;8.40;5.00;;;;;;;-3.60;100.00;100058.39;105855;1260;61233;-80
2023/11/28 01:02:21;;;;;;;8.50;5.70;;;;;;;-3.63;100.00;100057.23;107527;1253;60317;-78
2023/11/28 01:04:48;;;;;;;7.60;5.30;;;;;;;-3.63;100.00;100063.38;106029;1254;71908;-79
2023/11/28 01:07:15;;;;;;;10.00;6.10;;;;;;;-3.65;100.00;100063.39;105758;1256;64187;-80
2023/11/28 01:09:43;;;;;;;7.80;5.50;;;;;;;-3.66;100.00;100067.34;105786;1257;72624;-81
2023/11/28 01:12:11;;;;;;;8.10;5.00;;;;;;;-3.66;100.00;100076.23;105951;1253;61869;-80
2023/11/28 01:14:37;;;;;;;8.30;4.60;;;;;;;-3.69;100.00;100078.98;105964;1256;59597;-80
2023/11/28 01:17:06;;;;;;;7.10;5.00;;;;;;;-3.70;100.00;100077.13;105818;1254;73048;-80
2023/11/28 01:19:34;;;;;;;6.80;4.40;;;;;;;-3.72;100.00;100086.53;105824;1255;62543;-80
2023/11/28 01:22:01;;;;;;;5.00;4.30;;;;;;;-3.75;100.00;100083.66;105939;1256;70965;-80
2023/11/28 01:24:29;;;;;;;7.50;5.50;;;;;;;-3.75;100.00;100086.39;105770;1257;61953;-78
2023/11/28 01:26:55;;;;;;;9.50;5.40;;;;;;;-3.76;100.00;100096.31;105710;1254;59590;-81
2023/11/28 01:29:23;;;;;;;9.10;5.00;;;;;;;-3.76;100.00;100099.38;105733;1252;72119;-79
2023/11/28 01:31:50;;;;;;;7.80;4.90;;;;;;;-3.75;100.00;100110.15;105821;1256;63870;-79
2023/11/28 01:34:17;;;;;;;10.50;5.00;;;;;;;-3.75;100.00;100112.17;105967;1254;71295;-81
2023/11/28 01:36:44;;;;;;;7.80;4.80;;;;;;;-3.73;100.00;100121.21;106584;1252;61833;-79
2023/11/28 01:39:14;;;;;;;9.70;5.00;;;;;;;-3.71;100.00;100122.05;108733;1253;59476;-80
2023/11/28 01:41:42;;;;;;;7.90;5.10;;;;;;;-3.70;100.00;100129.73;106808;1254;71550;-82
2023/11/28 01:44:10;;;;;;;8.50;4.70;;;;;;;-3.70;100.00;100127.33;105779;1252;63929;-80
2023/11/28 01:46:39;;;;;;;8.40;5.80;;;;;;;-3.69;100.00;100134.16;105988;1257;72579;-76
2023/11/28 01:49:09;;;;;;;6.20;4.90;;;;;;;-3.68;100.00;100136.20;105953;1253;61686;-80
2023/11/28 01:51:36;;;;;;;5.90;4.50;;;;;;;-3.66;100.00;100141.46;106522;1255;59241;-78
2023/11/28 01:54:04;;;;;;;7.80;4.80;;;;;;;-3.64;100.00;100145.20;105863;1254;73035;-79
2023/11/28 01:56:34;;;;;;;7.50;4.60;;;;;;;-3.62;100.00;100148.77;106294;1256;62983;-81
2023/11/28 01:59:02;;;;;;;5.90;3.70;;;;;;;-3.59;100.00;100144.65;105861;1252;70904;-81
2023/11/28 02:01:29;;;;;;;5.80;4.50;;;;;;;-3.56;100.00;100151.11;105886;1255;61944;-82
2023/11/28 02:03:57;;;;;;;9.20;6.30;;;;;;;-3.52;100.00;100150.21;105881;1256;60033;-80
2023/11/28 02:06:24;;;;;;;8.60;5.60;;;;;;;-3.48;100.00;100150.52;105881;1256;72839;-80
2023/11/28 02:08:51;;;;;;;6.80;4.90;;;;;;;-3.45;100.00;100155.27;105966;1251;61341;-80
2023/11/28 02:11:17;;;;;;;6.70;4.20;;;;;;;-3.43;100.00;100153.38;105877;1256;71235;-81
2023/11/28 02:13:44;;;;;;;5.00;4.10;;;;;;;-3.41;100.00;100156.75;105697;1257;62085;-80
2023/11/28 02:16:13;;;;;;;6.10;4.70;;;;;;;-3.38;100.00;100160.84;105944;1251;60111;-80
2023/11/28 02:18:41;;;;;;;6.70;4.60;;;;;;;-3.36;100.00;100154.84;105875;1256;73128;-82
2023/11/28 02:21:09;;;;;;;6.90;5.20;;;;;;;-3.33;100.00;100155.84;105697;1256;63815;-82
2023/11/28 02:23:37;;;;;;;9.70;5.60;;;;;;;-3.32;100.00;100152.08;105891;1256;72707;-81
2023/11/28 02:26:25;;;;;;;6.90;5.30;;;;;;;-3.32;100.00;100150.02;106120;1256;61855;-79
2023/11/28 02:28:53;;;;;;;11.60;6.10;;;;;;;-3.33;100.00;100153.61;106008;1256;59564;-80
2023/11/28 02:31:21;;;;;;;8.50;5.70;;;;;;;-3.35;100.00;100151.92;105948;1256;71816;-82
2023/11/28 02:33:48;;;;;;;6.40;4.90;;;;;;;-3.36;100.00;100159.80;105952;1257;63829;-82
2023/11/28 02:36:16;;;;;;;9.70;5.10;;;;;;;-3.39;100.00;100163.92;105966;1257;72381;-81
2023/11/28 02:38:43;;;;;;;7.80;5.00;;;;;;;-3.39;100.00;100172.14;106758;1253;61295;-79
2023/11/28 02:41:10;;;;;;;7.60;5.10;;;;;;;-3.39;100.00;100171.10;106670;1254;59612;-82
2023/11/28 02:43:37;;;;;;;5.50;4.40;;;;;;;-3.39;100.00;100173.84;105790;1253;73006;-81
2023/11/28 02:46:05;;;;;;;9.60;5.80;;;;;;;-3.38;100.00;100181.52;106004;1254;61709;-80
2023/11/28 02:48:32;;;;;;;6.20;4.60;;;;;;;-3.38;100.00;100188.02;106025;1253;72590;-81
2023/11/28 02:50:59;;;;;;;6.20;5.20;;;;;;;-3.38;100.00;100188.54;105882;1255;61997;-83
2023/11/28 02:53:26;;;;;;;7.90;5.50;;;;;;;-3.38;100.00;100190.91;106037;1251;59572;-81
2023/11/28 02:55:53;;;;;;;7.00;5.20;;;;;;;-3.38;100.00;100189.55;105919;1254;72647;-82
2023/11/28 02:58:20;;;;;;;8.20;6.10;;;;;;;-3.39;100.00;100191.11;105820;1251;64468;-83
2023/11/28 03:00:47;;;;;;;5.80;5.10;;;;;;;-3.40;100.00;100187.52;105942;1251;72634;-80
2023/11/28 03:03:15;;;;;;;9.10;5.60;;;;;;;-3.38;100.00;100191.59;105795;1254;61708;-81
2023/11/28 03:05:43;;;;;;;11.30;5.60;;;;;;;-3.32;100.00;100192.05;105844;1252;60412;-80
2023/11/28 03:08:09;;;;;;;7.10;5.50;;;;;;;-3.26;100.00;100199.34;105824;1256;73540;-83
2023/11/28 03:10:36;;;;;;;5.60;4.90;;;;;;;-3.19;100.00;100204.39;105690;1251;63849;-81
2023/11/28 03:13:03;;;;;;;6.80;5.00;;;;;;;-3.11;100.00;100202.42;105998;1256;71354;-81
2023/11/28 03:15:30;;;;;;;9.40;6.10;;;;;;;-3.03;100.00;100202.52;105863;1256;61765;-81
2023/11/28 03:17:58;;;;;;;9.30;5.00;;;;;;;-2.96;100.00;100212.35;105978;1256;60427;-79
2023/11/28 03:20:28;;;;;;;6.90;5.70;;;;;;;-2.89;100.00;100215.52;105929;1257;73631;-81
2023/11/28 03:22:55;;;;;;;9.20;5.40;;;;;;;-2.82;100.00;100214.59;105845;1257;63810;-79
2023/11/28 03:25:22;;;;;;;7.70;4.90;;;;;;;-2.75;100.00;100212.11;106020;1254;72681;-78
2023/11/28 03:27:49;;;;;;;8.50;5.10;;;;;;;-2.69;100.00;100219.40;107299;1256;60688;-78
2023/11/28 03:30:16;;;;;;;6.60;4.60;;;;;;;-2.64;100.00;100224.30;106275;1251;60479;-79
2023/11/28 03:32:43;;;;;;;7.90;5.00;;;;;;;-2.60;100.00;100227.16;105968;1256;73926;-80
2023/11/28 03:35:11;;;;;;;8.50;4.50;;;;;;;-2.56;100.00;100231.38;106173;1253;63748;-82
2023/11/28 03:37:40;;;;;;;5.40;4.60;;;;;;;-2.54;100.00;100236.99;105954;1251;72671;-78
2023/11/28 03:40:09;;;;;;;5.70;4.40;;;;;;;-2.52;100.00;100241.61;106207;1253;61783;-79
2023/11/28 03:42:37;;;;;;;5.00;3.70;;;;;;;-2.51;100.00;100243.46;107688;1251;60335;-79
2023/11/28 03:45:05;;;;;;;5.80;4.40;;;;;;;-2.48;100.00;100246.00;106590;1256;72693;-77
2023/11/28 03:47:33;;;;;;;5.70;4.70;;;;;;;-2.46;100.00;100252.83;106273;1251;64345;-81
2023/11/28 03:50:00;;;;;;;5.40;4.20;;;;;;;-2.44;100.00;100250.75;105875;1251;73004;-78
2023/11/28 03:52:27;;;;;;;8.40;4.90;;;;;;;-2.43;100.00;100250.90;105970;1256;61993;-80
2023/11/28 03:54:54;;;;;;;6.60;5.00;;;;;;;-2.42;100.00;100253.79;106022;1251;60892;-81
2023/11/28 03:57:21;;;;;;;5.00;4.50;;;;;;;-2.41;100.00;100255.83;106166;1251;72680;-79
2023/11/28 03:59:48;;;;;;;6.90;4.60;;;;;;;-2.39;100.00;100260.77;108342;1251;62418;-78
2023/11/28 04:02:15;;;;;;;5.70;4.30;;;;;;;-2.38;100.00;100262.83;106671;1253;71840;-80
2023/11/28 04:04:42;;;;;;;5.50;4.20;;;;;;;-2.37;100.00;100261.80;106118;1254;60543;-81
2023/11/28 04:07:11;;;;;;;7.60;4.90;;;;;;;-2.38;100.00;100262.30;105797;1251;60482;-80
2023/11/28 04:09:38;;;;;;;5.50;4.90;;;;;;;-2.37;100.00;100265.20;105871;1251;73852;-80
2023/11/28 04:12:05;;;;;;;7.30;4.90;;;;;;;-2.37;100.00;100268.45;105908;1255;63779;-79
2023/11/28 04:14:33;;;;;;;6.20;5.00;;;;;;;-2.36;100.00;100274.60;106355;1251;71824;-77
2023/11/28 04:17:00;;;;;;;10.10;5.40;;;;;;;-2.36;100.00;100280.75;107682;1251;61826;-78
2023/11/28 04:19:28;;;;;;;5.50;4.80;;;;;;;-2.34;100.00;100283.83;108653;1251;59100;-78
2023/11/28 04:21:55;;;;;;;6.60;5.00;;;;;;;-2.31;100.00;100289.10;108892;1254;72977;-78
2023/11/28 04:24:22;;;;;;;5.50;4.50;;;;;;;-2.29;100.00;100293.17;105931;1251;63958;-81
2023/11/28 04:26:50;;;;;;;6.50;5.20;;;;;;;-2.28;100.00;100296.77;105911;1251;72482;-80
2023/11/28 04:29:19;;;;;;;6.90;4.70;;;;;;;-2.27;100.00;100296.92;105969;1256;61929;-81
2023/11/28 04:31:49;;;;;;;10.60;4.60;;;;;;;-2.28;100.00;100302.23;105840;1254;60392;-81
2023/11/28 04:34:16;;;;;;;6.40;4.60;;;;;;;-2.31;100.00;100304.84;105864;1254;73668;-80
2023/11/28 04:36:43;;;;;;;7.00;4.90;;;;;;;-2.33;100.00;100305.23;105954;1251;64025;-82
2023/11/28 04:39:11;;;;;;;8.70;5.60;;;;;;;-2.34;100.00;100310.70;105925;1251;72637;-82
2023/11/28 04:41:39;;;;;;;6.50;4.70;;;;;;;-2.36;100.00;100315.86;106001;1256;61758;-80
2023/11/28 04:44:07;;;;;;;7.00;5.10;;;;;;;-2.38;100.00;100317.59;105947;1252;60370;-79
2023/11/28 04:46:35;;;;;;;10.70;5.10;;;;;;;-2.41;100.00;100321.23;105792;1256;71541;-79
2023/11/28 04:49:03;;;;;;;7.40;5.30;;;;;;;-2.44;100.00;100320.58;105802;1256;63727;-80
2023/11/28 04:51:30;;;;;;;10.90;5.30;;;;;;;-2.46;100.00;100315.11;105780;1256;70106;-79
2023/11/28 04:53:57;;;;;;;5.80;4.40;;;;;;;-2.50;100.00;100319.10;105847;1252;60997;-81
2023/11/28 04:56:26;;;;;;;11.30;5.50;;;;;;;-2.54;100.00;100323.61;105878;1256;60428;-80
2023/11/28 04:58:54;;;;;;;7.70;6.10;;;;;;;-2.59;100.00;100327.07;105950;1251;73824;-79
2023/11/28 05:01:21;;;;;;;8.30;5.70;;;;;;;-2.63;100.00;100325.75;105922;1255;63586;-80
2023/11/28 05:03:48;;;;;;;8.30;5.40;;;;;;;-2.67;100.00;100330.06;106517;1257;72618;-79
2023/11/28 05:06:16;;;;;;;7.00;5.30;;;;;;;-2.67;100.00;100332.80;106635;1256;60576;-78
2023/11/28 05:08:46;;;;;;;8.50;5.30;;;;;;;-2.69;100.00;100333.00;106031;1251;60456;-78
2023/11/28 05:11:12;;;;;;;7.60;5.50;;;;;;;-2.70;100.00;100336.44;105892;1251;74402;-79
2023/11/28 05:13:39;;;;;;;6.80;4.40;;;;;;;-2.73;100.00;100345.36;105825;1256;63722;-79
2023/11/28 05:16:06;;;;;;;8.80;5.50;;;;;;;-2.75;100.00;100347.77;105850;1256;72512;-80
2023/11/28 05:18:33;;;;;;;9.70;5.90;;;;;;;-2.77;100.00;100352.08;105825;1256;61929;-80
2023/11/28 05:21:00;;;;;;;7.10;4.80;;;;;;;-2.80;100.00;100353.29;105971;1251;60540;-80
2023/11/28 05:23:28;;;;;;;9.00;4.90;;;;;;;-2.84;100.00;100356.06;105773;1257;73671;-79
2023/11/28 05:25:56;;;;;;;7.20;5.00;;;;;;;-2.87;100.00;100351.13;105777;1251;62163;-80
2023/11/28 05:28:24;;;;;;;11.30;5.80;;;;;;;-2.90;100.00;100356.47;106072;1254;72656;-79
2023/11/28 05:30:51;;;;;;;11.40;5.90;;;;;;;-2.94;100.00;100360.60;105584;1257;60417;-79
2023/11/28 05:33:18;;;;;;;7.40;5.40;;;;;;;-2.96;100.00;100366.11;105976;1255;60455;-81
2023/11/28 05:35:47;;;;;;;8.30;4.90;;;;;;;-2.98;100.00;100369.37;105821;1256;73823;-81
2023/11/28 05:38:15;;;;;;;8.10;5.00;;;;;;;-2.99;100.00;100371.08;105865;1251;63615;-81
2023/11/28 05:40:42;;;;;;;7.40;5.40;;;;;;;-3.03;100.00;100372.83;105838;1254;72512;-82
2023/11/28 05:43:10;;;;;;;9.30;5.40;;;;;;;-3.04;100.00;100372.33;105781;1254;60753;-81
2023/11/28 05:45:37;;;;;;;8.80;5.40;;;;;;;-3.09;100.00;100381.09;106713;1251;60440;-80
2023/11/28 05:48:05;;;;;;;5.40;4.40;;;;;;;-3.12;100.00;100387.09;106185;1253;72899;-79
2023/11/28 05:50:33;;;;;;;5.60;4.80;;;;;;;-3.14;100.00;100386.25;106600;1255;62846;-77
2023/11/28 05:53:01;;;;;;;8.80;5.30;;;;;;;-3.18;100.00;100386.11;107159;1251;72656;-79
2023/11/28 05:55:29;;;;;;;9.00;5.50;;;;;;;-3.21;100.00;100393.33;106832;1251;62113;-77
2023/11/28 05:57:56;;;;;;;7.00;5.40;;;;;;;-3.23;100.00;100394.87;107264;1253;60193;-78
2023/11/28 06:00:27;;;;;;;8.60;5.90;;;;;;;-3.24;100.00;100394.20;108638;1251;72739;-79
2023/11/28 06:02:57;;;;;;;6.80;5.00;;;;;;;-3.23;100.00;100394.18;108099;1251;65099;-77
2023/11/28 06:05:27;;;;;;;7.90;5.00;;;;;;;-3.23;100.00;100399.14;107079;1257;72655;-77
2023/11/28 06:07:57;;;;;;;6.90;5.60;;;;;;;-3.22;100.00;100399.14;106822;1256;60504;-80
2023/11/28 06:10:48;;;;;;;13.80;6.50;;;;;;;-3.20;100.00;100403.05;104229;1292;599697;-80
2023/11/28 06:13:17;;;;;;;8.90;6.10;;;;;;;-3.23;100.00;100405.46;107654;1254;60590;-79
2023/11/28 06:15:44;;;;;;;8.60;6.00;;;;;;;-3.23;100.00;100410.25;107201;1254;59307;-79
2023/11/28 06:18:15;;;;;;;8.00;5.00;;;;;;;-3.22;100.00;100414.02;107782;1254;70132;-79
2023/11/28 06:20:45;;;;;;;7.20;5.70;;;;;;;-3.21;100.00;100416.90;107510;1254;62293;-78
2023/11/28 06:23:14;;;;;;;6.50;4.90;;;;;;;-3.21;100.00;100418.29;107521;1257;218496;-76
2023/11/28 06:25:47;;;;;;;7.10;5.20;;;;;;;-3.22;100.00;100424.60;107985;1253;60426;-77
2023/11/28 06:28:16;;;;;;;7.70;5.70;;;;;;;-3.20;100.00;100422.55;107534;1253;61150;-79
2023/11/28 06:30:44;;;;;;;8.30;6.30;;;;;;;-3.16;100.00;100428.33;108010;1253;72251;-79
2023/11/28 06:33:12;;;;;;;8.10;5.80;;;;;;;-3.12;100.00;100428.13;107735;1252;62580;-80
2023/11/28 06:35:40;;;;;;;7.70;6.80;;;;;;;-3.10;100.00;100425.20;108117;1253;71120;-77
2023/11/28 06:38:20;;;;;;;10.30;6.40;;;;;;;-3.06;100.00;100431.50;107801;1254;60789;-78
2023/11/28 06:40:50;;;;;;;12.60;6.80;;;;;;;-2.97;100.00;100430.23;108261;1251;59719;-79
2023/11/28 06:43:23;;;;;;;11.60;7.90;;;;;;;-2.85;100.00;100432.71;108434;1253;71588;-79
2023/11/28 06:45:58;;;;;;;9.50;6.30;;;;;;;-2.81;100.00;100437.98;108789;1254;62322;-79
2023/11/28 06:48:37;;;;;;;8.10;5.90;;;;;;;-2.77;100.00;100437.27;108574;1257;70416;-79
2023/11/28 06:51:24;;;;;;;9.30;6.40;;;;;;;-2.76;100.00;100436.73;107995;1257;60668;-77
2023/11/28 06:53:54;;;;;;;10.10;6.10;;;;;;;-2.78;100.00;100438.64;107534;1256;60081;-78
2023/11/28 06:56:23;;;;;;;8.30;6.40;;;;;;;-2.78;100.00;100437.10;107985;1255;72025;-80
2023/11/28 06:59:24;;;;;;;9.70;5.80;;;;;;;-2.72;100.00;100435.34;104889;1291;599835;-79
2023/11/28 07:01:54;;;;;;;9.20;5.30;;;;;;;-2.71;100.00;100438.08;107042;1266;60962;-81
2023/11/28 07:04:23;;;;;;;9.80;5.60;;;;;;;-2.69;100.00;100435.66;106839;1266;61808;-80
2023/11/28 07:06:51;;;;;;;9.10;6.20;;;;;;;-2.65;100.00;100428.27;107112;1266;70867;-80
2023/11/28 07:09:19;;;;;;;9.00;5.70;;;;;;;-2.59;100.00;100434.02;106472;1266;63754;-79
2023/11/28 07:11:50;;;;;;;7.70;5.40;;;;;;;-2.52;100.00;100433.45;107107;1254;71524;-80
2023/11/28 07:14:18;;;;;;;7.50;5.40;;;;;;;-2.44;100.00;100433.20;107642;1251;60919;-79
2023/11/28 07:16:48;;;;;;;10.90;7.00;;;;;;;-2.40;100.00;100438.30;108383;1254;60050;-81
2023/11/28 07:19:18;;;;;;;9.20;7.20;;;;;;;-2.38;100.00;100448.55;108287;1252;71216;-79
2023/11/28 07:21:47;;;;;;;9.40;5.70;;;;;;;-2.35;100.00;100454.51;108731;1256;62334;-81
2023/11/28 07:24:31;;;;;;;9.40;5.40;;;;;;;-2.33;100.00;100453.47;107841;1256;70783;-79
2023/11/28 07:27:00;;;;;;;11.80;5.80;;;;;;;-2.32;100.00;100452.27;107795;1251;60535;-79
2023/11/28 07:29:28;;;;;;;9.40;6.40;;;;;;;-2.31;100.00;100449.68;106518;1253;59631;-78
2023/11/28 07:31:56;;;;;;;9.20;5.90;;;;;;;-2.27;100.00;100453.92;107325;1253;74028;-77
2023/11/28 07:34:24;;;;;;;8.00;5.50;;;;;;;-2.22;100.00;100453.02;106713;1253;63753;-77
2023/11/28 07:36:52;;;;;;;8.60;7.20;;;;;;;-2.20;100.00;100450.59;107063;1252;71561;-78
2023/11/28 07:39:19;;;;;;;10.10;7.50;;;;;;;-2.16;100.00;100457.92;107600;1254;61422;-78
2023/11/28 07:41:47;;;;;;;9.10;5.40;;;;;;;-2.11;100.00;100454.43;106800;1252;60091;-78
2023/11/28 07:44:16;;;;;;;11.70;6.90;;;;;;;-2.06;100.00;100457.82;107361;1253;71887;-79
2023/11/28 07:46:45;;;;;;;9.20;6.20;;;;;;;-2.03;100.00;100458.81;106817;1254;62574;-79
2023/11/28 07:49:13;;;;;;;11.10;7.50;;;;;;;-2.02;100.00;100461.03;106291;1254;71447;-79
2023/11/28 07:51:44;;;;;;;8.90;6.10;;;;;;;-2.00;100.00;100457.05;106191;1253;60400;-80
2023/11/28 07:54:12;;;;;;;10.80;5.90;;;;;;;-2.01;100.00;100452.45;106318;1253;60181;-80
2023/11/28 07:56:39;;;;;;;10.20;7.00;;;;;;;-2.00;100.00;100452.09;106353;1252;73040;-79
2023/11/28 07:59:09;;;;;;;13.90;7.70;;;;;;;-2.00;100.00;100454.33;106324;1256;63039;-79
2023/11/28 08:01:38;;;;;;;8.40;6.60;;;;;;;-1.98;100.00;100452.25;106556;1253;71125;-81
2023/11/28 08:04:06;;;;;;;12.80;8.10;;;;;;;-1.94;100.00;100453.75;106451;1254;61803;-80
2023/11/28 08:06:34;;;;;;;12.10;7.60;;;;;;;-1.92;100.00;100459.89;106290;1257;59619;-79
2023/11/28 08:09:04;;;;;;;9.80;6.80;;;;;;;-1.89;100.00;100460.02;106037;1253;73098;-80
2023/11/28 08:11:32;;;;;;;11.50;7.40;;;;;;;-1.86;100.00;100462.73;106148;1254;63638;-79
2023/11/28 08:13:59;;;;;;;13.80;7.00;;;;;;;-1.85;100.00;100464.93;105926;1259;73321;-80
2023/11/28 08:16:30;;;;;;;10.80;7.10;;;;;;;-1.82;100.00;100464.39;106257;1254;60459;-79
2023/11/28 08:18:58;;;;;;;10.00;6.30;;;;;;;-1.78;100.00;100470.02;106755;1253;60648;-78
2023/11/28 08:21:25;;;;;;;10.20;7.80;;;;;;;-1.73;100.00;100471.64;107231;1253;73062;-79
2023/11/28 08:23:54;;;;;;;9.50;6.70;;;;;;;-1.68;100.00;100472.61;106352;1253;62568;-79
2023/11/28 08:26:24;;;;;;;6.90;5.80;;;;;;;-1.62;100.00;100473.92;106687;1257;72769;-81
2023/11/28 08:28:53;;;;;;;9.90;6.50;;;;;;;-1.57;100.00;100474.55;106281;1257;60650;-81
2023/11/28 08:31:22;;;;;;;10.40;6.70;;;;;;;-1.52;100.00;100476.72;106380;1256;59576;-79
2023/11/28 08:33:50;;;;;;;12.20;6.90;;;;;;;-1.48;100.00;100473.40;106373;1253;72244;-79
2023/11/28 08:36:18;;;;;;;10.60;7.20;;;;;;;-1.44;100.00;100469.75;106275;1256;62441;-80
2023/11/28 08:38:45;;;;;;;10.50;8.10;;;;;;;-1.39;100.00;100473.98;106449;1253;72638;-80
2023/11/28 08:41:13;;;;;;;11.10;7.30;;;;;;;-1.34;100.00;100469.61;106233;1254;59657;-78
2023/11/28 08:43:42;;;;;;;12.00;6.80;;;;;;;-1.30;100.00;100470.59;106631;1252;59646;-79
2023/11/28 08:46:14;;;;;;;12.60;8.30;;;;;;;-1.26;100.00;100467.79;106341;1256;73285;-80
2023/11/28 08:48:42;;;;;;;11.30;7.40;;;;;;;-1.21;100.00;100464.81;106499;1252;63211;-79
2023/11/28 08:51:10;;;;;;;14.20;8.10;;;;;;;-1.18;100.00;100469.21;106369;1253;74559;-80
2023/11/28 08:53:37;;;;;;;12.70;7.80;;;;;;;-1.16;100.00;100469.88;106919;1256;59727;-81
2023/11/28 08:56:11;;;;;;;13.30;7.80;;;;;;;-1.10;100.00;100468.23;106561;1251;59595;-80
2023/11/28 08:58:40;;;;;;;9.70;6.30;;;;;;;-1.03;100.00;100464.73;106441;1259;75294;-82
2023/11/28 09:01:07;;;;;;;8.50;5.90;;;;;;;-1.00;100.00;100460.72;106519;1253;62323;-79
2023/11/28 09:03:36;;;;;;;7.10;5.50;;;;;;;-0.98;100.00;100461.38;106808;1256;74159;-80
2023/11/28 09:06:04;;;;;;;8.10;5.30;;;;;;;-0.95;100.00;100456.35;107011;1255;60910;-80
2023/11/28 09:08:31;;;;;;;8.40;5.50;;;;;;;-0.91;100.00;100460.07;107636;1255;59537;-81
2023/11/28 09:11:00;;;;;;;7.80;5.70;;;;;;;-0.88;100.00;100458.65;107375;1252;72250;-79
2023/11/28 09:13:29;;;;;;;6.80;4.90;;;;;;;-0.84;100.00;100457.23;106359;1252;63018;-82
2023/11/28 09:16:05;;;;;;;7.70;6.00;;;;;;;-0.79;100.00;100458.86;106088;1251;73464;-80
2023/11/28 09:18:33;;;;;;;8.50;5.40;;;;;;;-0.75;100.00;100460.86;105889;1253;60958;-79
2023/11/28 09:21:04;;;;;;;8.80;5.30;;;;;;;-0.71;100.00;100463.70;106155;1257;59576;-80
2023/11/28 09:23:32;;;;;;;8.70;5.90;;;;;;;-0.68;100.00;100461.42;106439;1253;73292;-81
2023/11/28 09:25:59;;;;;;;16.80;8.20;;;;;;;-0.63;100.00;100463.58;106399;1256;62339;-78
2023/11/28 09:28:32;;;;;;;13.60;8.30;;;;;;;-0.57;100.00;100461.25;107391;1251;72671;-79
2023/11/28 09:31:00;;;;;;;10.60;6.90;;;;;;;-0.53;100.00;100463.07;106594;1251;63302;-80
2023/11/28 09:33:28;;;;;;;11.60;7.40;;;;;;;-0.49;100.00;100463.85;106495;1251;61087;-79
2023/11/28 09:35:56;;;;;;;10.10;7.00;;;;;;;-0.45;100.00;100463.09;106432;1256;72116;-78
2023/11/28 09:38:24;;;;;;;8.80;6.50;;;;;;;-0.38;100.00;100467.11;106155;1251;64610;-80
2023/11/28 09:40:53;;;;;;;12.40;7.90;;;;;;;-0.34;100.00;100462.57;106197;1251;72665;-78
2023/11/28 09:43:25;;;;;;;9.70;6.30;;;;;;;-0.29;100.00;100464.52;106020;1251;63687;-79
2023/11/28 09:45:57;;;;;;;8.70;7.30;;;;;;;-0.26;100.00;100465.16;106462;1251;59644;-79
2023/11/28 09:48:25;;;;;;;7.90;6.80;;;;;;;-0.21;100.00;100452.54;109163;1251;71821;-80
2023/11/28 09:50:54;;;;;;;11.20;7.10;;;;;;;-0.16;100.00;100456.76;108531;1251;62460;-80
2023/11/28 09:53:23;;;;;;;10.20;7.20;;;;;;;-0.11;100.00;100454.59;106982;1251;73802;-81
2023/11/28 09:55:59;;;;;;;8.10;6.60;;;;;;;-0.05;100.00;100448.81;106005;1251;60466;-80
2023/11/28 09:58:27;;;;;;;7.60;6.20;;;;;;;0.02;100.00;100448.16;107006;1253;59733;-80
2023/11/28 10:00:58;;;;;;;10.30;6.70;;;;;;;0.06;100.00;100446.70;106176;1257;73038;-79
2023/11/28 10:03:27;;;;;;;7.60;6.00;;;;;;;0.12;100.00;100449.86;105896;1256;62230;-79
2023/11/28 10:05:55;;;;;;;10.80;7.00;;;;;;;0.15;100.00;100454.94;105899;1256;72645;-81
2023/11/28 10:08:23;;;;;;;11.80;7.00;;;;;;;0.20;100.00;100451.59;105874;1256;59720;-80
2023/11/28 10:10:53;;;;;;;14.50;6.90;;;;;;;0.25;100.00;100447.00;105867;1251;62250;-80
2023/11/28 10:13:22;;;;;;;8.10;6.20;;;;;;;0.30;100.00;100445.19;105841;1257;73031;-81
2023/11/28 10:15:52;;;;;;;9.10;6.30;;;;;;;0.36;100.00;100449.37;105957;1253;63934;-80
2023/11/28 10:18:22;;;;;;;11.10;7.20;;;;;;;0.42;100.00;100453.87;105965;1255;72806;-79
2023/11/28 10:20:50;;;;;;;11.10;7.70;;;;;;;0.47;100.00;100449.49;106049;1255;61207;-80
2023/11/28 10:23:18;;;;;;;10.80;7.20;;;;;;;0.51;100.00;100450.95;105855;1251;59564;-80
2023/11/28 10:25:46;;;;;;;10.30;7.30;;;;;;;0.56;100.00;100451.19;106014;1251;75049;-80
2023/11/28 10:28:14;;;;;;;14.80;8.90;;;;;;;0.62;100.00;100452.59;105873;1256;63502;-80
2023/11/28 10:30:42;;;;;;;10.80;6.50;;;;;;;0.71;100.00;100450.86;105823;1254;71390;-79
2023/11/28 10:33:10;;;;;;;12.60;7.00;;;;;;;0.79;100.00;100446.70;105652;1261;59693;-78
2023/11/28 10:35:39;;;;;;;8.20;5.80;;;;;;;0.86;100.00;100442.77;105890;1251;59660;-80
2023/11/28 10:38:15;;;;;;;11.30;7.80;;;;;;;0.92;100.00;100439.89;105995;1251;72888;-81
2023/11/28 10:40:50;;;;;;;13.80;7.60;;;;;;;0.97;100.00;100435.99;105810;1256;63724;-80
2023/11/28 10:43:18;;;;;;;12.60;8.80;;;;;;;1.01;100.00;100441.39;105934;1254;71081;-79
2023/11/28 10:45:46;;;;;;;13.40;8.00;;;;;;;1.05;100.00;100438.54;106166;1251;61973;-79
2023/11/28 10:48:16;;;;;;;10.30;7.30;;;;;;;1.10;100.00;100445.50;106227;1257;59586;-80
2023/11/28 10:50:46;;;;;;;12.60;7.10;;;;;;;1.11;100.00;100447.02;105951;1256;70932;-80
2023/11/28 10:53:14;;;;;;;13.50;6.90;;;;;;;1.13;100.00;100445.75;105858;1253;61317;-80
2023/11/28 10:55:51;;;;;;;12.30;7.10;;;;;;;1.17;100.00;100448.59;105840;1253;73642;-80
2023/11/28 10:58:19;;;;;;;13.40;7.30;;;;;;;1.25;100.00;100450.81;105908;1252;59727;-79
2023/11/28 11:00:52;;;;;;;16.80;8.40;;;;;;;1.33;100.00;100449.92;107139;1251;59252;-76
2023/11/28 11:03:24;;;;;;;15.00;8.20;;;;;;;1.46;100.00;100448.91;107392;1251;71470;-81
2023/11/28 11:05:52;;;;;;;14.30;8.40;;;;;;;1.59;100.00;100449.60;106419;1256;64839;-78
2023/11/28 11:11:20;;;;;;;6.80;5.30;;;;;;;1.82;100.00;100445.88;102680;1295;601301;-79
2023/11/28 11:13:54;;;;;;;9.00;5.70;;;;;;;1.91;100.00;100444.30;105755;1255;59981;-81
2023/11/28 11:16:30;;;;;;;12.60;7.60;;;;;;;1.96;100.00;100435.73;106147;1254;61329;-78